sensor_id;sensor_type;location;lat;lon;timestamp;P1;durP1;ratioP1;P2;durP2;ratioP2
8913;SDS011;4492;48.736;9.092;2023-05-10T00:00:11;0.97;;;0.60;;
8913;SDS011;4492;48.736;9.092;2023-05-10T00:02:37;0.50;;;0.50;;
8913;SDS011;4492;48.736;9.092;2023-05-10T00:05:03;0.40;;;0.40;;
8913;SDS011;4492;48.736;9.092;2023-05-10T00:07:30;2.10;;;0.60;;
8913;SDS011;4492;48.736;9.092;2023-05-10T00:09:55;1.30;;;0.40;;
8913;SDS011;4492;48.736;9.092;2023-05-10T00:12:21;0.30;;;0.30;;
8913;SDS011;4492;48.736;9.092;2023-05-10T00:14:46;0.30;;;0.20;;
8913;SDS011;4492;48.736;9.092;2023-05-10T00:17:12;1.43;;;0.17;;
8913;SDS011;4492;48.736;9.092;2023-05-10T00:19:37;1.40;;;0.10;;
8913;SDS011;4492;48.736;9.092;2023-05-10T00:22:03;3.03;;;0.10;;
8913;SDS011;4492;48.736;9.092;2023-05-10T00:24:28;2.77;;;0.30;;
8913;SDS011;4492;48.736;9.092;2023-05-10T00:26:54;0.10;;;0.10;;
8913;SDS011;4492;48.736;9.092;2023-05-10T00:29:19;0.23;;;0.20;;
8913;SDS011;4492;48.736;9.092;2023-05-10T00:31:45;0.13;;;0.13;;
8913;SDS011;4492;48.736;9.092;2023-05-10T00:34:10;0.10;;;0.10;;
8913;SDS011;4492;48.736;9.092;2023-05-10T00:36:36;1.33;;;0.10;;
8913;SDS011;4492;48.736;9.092;2023-05-10T00:39:02;0.10;;;0.10;;
8913;SDS011;4492;48.736;9.092;2023-05-10T00:41:28;0.13;;;0.10;;
8913;SDS011;4492;48.736;9.092;2023-05-10T00:43:56;0.40;;;0.10;;
8913;SDS011;4492;48.736;9.092;2023-05-10T00:46:22;0.40;;;0.10;;
8913;SDS011;4492;48.736;9.092;2023-05-10T00:48:48;0.50;;;0.07;;
8913;SDS011;4492;48.736;9.092;2023-05-10T00:51:14;0.33;;;0.30;;
8913;SDS011;4492;48.736;9.092;2023-05-10T00:53:39;0.20;;;0.10;;
8913;SDS011;4492;48.736;9.092;2023-05-10T00:56:05;1.00;;;0.10;;
8913;SDS011;4492;48.736;9.092;2023-05-10T00:58:31;0.93;;;0.10;;
8913;SDS011;4492;48.736;9.092;2023-05-10T01:00:57;0.00;;;0.00;;
8913;SDS011;4492;48.736;9.092;2023-05-10T01:03:24;0.83;;;0.17;;
8913;SDS011;4492;48.736;9.092;2023-05-10T01:05:50;0.10;;;0.10;;
8913;SDS011;4492;48.736;9.092;2023-05-10T01:08:16;0.10;;;0.10;;
8913;SDS011;4492;48.736;9.092;2023-05-10T01:10:41;0.13;;;0.10;;
8913;SDS011;4492;48.736;9.092;2023-05-10T01:13:08;0.17;;;0.03;;
8913;SDS011;4492;48.736;9.092;2023-05-10T01:15:34;2.40;;;0.10;;
8913;SDS011;4492;48.736;9.092;2023-05-10T01:18:01;0.10;;;0.10;;
8913;SDS011;4492;48.736;9.092;2023-05-10T01:20:28;0.13;;;0.07;;
8913;SDS011;4492;48.736;9.092;2023-05-10T01:23:10;1.30;;;0.20;;
8913;SDS011;4492;48.736;9.092;2023-05-10T01:25:57;0.40;;;0.10;;
8913;SDS011;4492;48.736;9.092;2023-05-10T01:31:28;0.77;;;0.10;;
8913;SDS011;4492;48.736;9.092;2023-05-10T01:34:08;0.13;;;0.10;;
8913;SDS011;4492;48.736;9.092;2023-05-10T01:36:40;0.50;;;0.27;;
8913;SDS011;4492;48.736;9.092;2023-05-10T01:42:09;0.10;;;0.10;;
8913;SDS011;4492;48.736;9.092;2023-05-10T01:47:09;2.23;;;0.20;;
8913;SDS011;4492;48.736;9.092;2023-05-10T01:49:39;0.37;;;0.30;;
8913;SDS011;4492;48.736;9.092;2023-05-10T01:52:12;0.10;;;0.10;;
8913;SDS011;4492;48.736;9.092;2023-05-10T01:54:41;2.07;;;0.20;;
8913;SDS011;4492;48.736;9.092;2023-05-10T01:57:12;1.00;;;0.17;;
8913;SDS011;4492;48.736;9.092;2023-05-10T01:59:39;0.20;;;0.20;;
8913;SDS011;4492;48.736;9.092;2023-05-10T02:02:08;0.63;;;0.30;;
8913;SDS011;4492;48.736;9.092;2023-05-10T02:04:37;0.30;;;0.20;;
8913;SDS011;4492;48.736;9.092;2023-05-10T02:07:04;0.20;;;0.20;;
8913;SDS011;4492;48.736;9.092;2023-05-10T02:09:32;0.10;;;0.10;;
8913;SDS011;4492;48.736;9.092;2023-05-10T02:11:59;1.20;;;0.20;;
8913;SDS011;4492;48.736;9.092;2023-05-10T02:14:27;0.20;;;0.20;;
8913;SDS011;4492;48.736;9.092;2023-05-10T02:16:57;0.33;;;0.20;;
8913;SDS011;4492;48.736;9.092;2023-05-10T02:19:25;0.20;;;0.20;;
8913;SDS011;4492;48.736;9.092;2023-05-10T02:21:53;0.20;;;0.17;;
8913;SDS011;4492;48.736;9.092;2023-05-10T02:24:20;1.43;;;0.20;;
8913;SDS011;4492;48.736;9.092;2023-05-10T02:26:47;0.30;;;0.30;;
8913;SDS011;4492;48.736;9.092;2023-05-10T02:29:14;0.83;;;0.40;;
8913;SDS011;4492;48.736;9.092;2023-05-10T02:31:41;0.33;;;0.33;;
8913;SDS011;4492;48.736;9.092;2023-05-10T02:34:08;0.30;;;0.30;;
8913;SDS011;4492;48.736;9.092;2023-05-10T02:36:35;0.20;;;0.20;;
8913;SDS011;4492;48.736;9.092;2023-05-10T02:39:02;0.60;;;0.20;;
8913;SDS011;4492;48.736;9.092;2023-05-10T02:41:28;0.20;;;0.20;;
8913;SDS011;4492;48.736;9.092;2023-05-10T02:43:57;0.40;;;0.33;;
8913;SDS011;4492;48.736;9.092;2023-05-10T02:46:26;1.60;;;0.40;;
8913;SDS011;4492;48.736;9.092;2023-05-10T02:48:51;0.40;;;0.30;;
8913;SDS011;4492;48.736;9.092;2023-05-10T02:51:18;1.03;;;0.40;;
8913;SDS011;4492;48.736;9.092;2023-05-10T02:53:46;0.40;;;0.40;;
8913;SDS011;4492;48.736;9.092;2023-05-10T02:56:19;0.93;;;0.50;;
8913;SDS011;4492;48.736;9.092;2023-05-10T02:58:49;0.47;;;0.47;;
8913;SDS011;4492;48.736;9.092;2023-05-10T03:01:15;0.60;;;0.60;;
8913;SDS011;4492;48.736;9.092;2023-05-10T03:03:41;2.10;;;0.80;;
8913;SDS011;4492;48.736;9.092;2023-05-10T03:06:06;0.60;;;0.60;;
8913;SDS011;4492;48.736;9.092;2023-05-10T03:08:32;1.60;;;0.90;;
8913;SDS011;4492;48.736;9.092;2023-05-10T03:11:06;0.80;;;0.80;;
8913;SDS011;4492;48.736;9.092;2023-05-10T03:14:03;0.60;;;0.60;;
8913;SDS011;4492;48.736;9.092;2023-05-10T03:16:42;0.70;;;0.70;;
8913;SDS011;4492;48.736;9.092;2023-05-10T03:21:49;0.77;;;0.77;;
8913;SDS011;4492;48.736;9.092;2023-05-10T03:24:18;0.60;;;0.60;;
8913;SDS011;4492;48.736;9.092;2023-05-10T03:26:47;1.73;;;0.87;;
8913;SDS011;4492;48.736;9.092;2023-05-10T03:29:13;1.47;;;0.83;;
8913;SDS011;4492;48.736;9.092;2023-05-10T03:31:40;1.10;;;0.93;;
8913;SDS011;4492;48.736;9.092;2023-05-10T03:34:06;2.50;;;1.20;;
8913;SDS011;4492;48.736;9.092;2023-05-10T03:36:32;1.00;;;1.00;;
8913;SDS011;4492;48.736;9.092;2023-05-10T03:38:57;1.30;;;1.20;;
8913;SDS011;4492;48.736;9.092;2023-05-10T03:41:23;3.37;;;1.33;;
8913;SDS011;4492;48.736;9.092;2023-05-10T03:43:50;1.40;;;1.30;;
8913;SDS011;4492;48.736;9.092;2023-05-10T03:46:16;2.97;;;1.60;;
8913;SDS011;4492;48.736;9.092;2023-05-10T03:48:41;2.90;;;1.50;;
8913;SDS011;4492;48.736;9.092;2023-05-10T03:51:07;2.33;;;1.47;;
8913;SDS011;4492;48.736;9.092;2023-05-10T03:53:32;2.53;;;1.27;;
8913;SDS011;4492;48.736;9.092;2023-05-10T03:55:58;3.33;;;1.60;;
8913;SDS011;4492;48.736;9.092;2023-05-10T03:58:23;3.63;;;1.67;;
8913;SDS011;4492;48.736;9.092;2023-05-10T04:00:48;4.47;;;1.50;;
8913;SDS011;4492;48.736;9.092;2023-05-10T04:03:14;2.30;;;1.40;;
8913;SDS011;4492;48.736;9.092;2023-05-10T04:05:40;1.10;;;1.10;;
8913;SDS011;4492;48.736;9.092;2023-05-10T04:08:05;1.10;;;1.10;;
8913;SDS011;4492;48.736;9.092;2023-05-10T04:10:31;3.07;;;1.20;;
8913;SDS011;4492;48.736;9.092;2023-05-10T04:12:57;2.10;;;1.13;;
8913;SDS011;4492;48.736;9.092;2023-05-10T04:15:22;1.40;;;1.30;;
8913;SDS011;4492;48.736;9.092;2023-05-10T04:17:48;3.43;;;1.60;;
8913;SDS011;4492;48.736;9.092;2023-05-10T04:20:15;4.27;;;2.40;;
8913;SDS011;4492;48.736;9.092;2023-05-10T04:22:40;3.53;;;1.53;;
8913;SDS011;4492;48.736;9.092;2023-05-10T04:25:06;1.53;;;1.43;;
8913;SDS011;4492;48.736;9.092;2023-05-10T04:27:32;2.30;;;1.50;;
8913;SDS011;4492;48.736;9.092;2023-05-10T04:29:58;2.90;;;1.60;;
8913;SDS011;4492;48.736;9.092;2023-05-10T04:32:23;1.93;;;1.60;;
8913;SDS011;4492;48.736;9.092;2023-05-10T04:34:49;2.13;;;1.77;;
8913;SDS011;4492;48.736;9.092;2023-05-10T04:37:15;1.60;;;1.50;;
8913;SDS011;4492;48.736;9.092;2023-05-10T04:39:41;3.23;;;1.53;;
8913;SDS011;4492;48.736;9.092;2023-05-10T04:42:06;2.20;;;1.70;;
8913;SDS011;4492;48.736;9.092;2023-05-10T04:44:32;1.63;;;1.40;;
8913;SDS011;4492;48.736;9.092;2023-05-10T04:46:58;3.03;;;1.67;;
8913;SDS011;4492;48.736;9.092;2023-05-10T04:49:23;1.80;;;1.33;;
8913;SDS011;4492;48.736;9.092;2023-05-10T04:51:49;3.37;;;1.43;;
8913;SDS011;4492;48.736;9.092;2023-05-10T04:54:15;1.90;;;1.57;;
8913;SDS011;4492;48.736;9.092;2023-05-10T04:56:40;3.57;;;1.60;;
8913;SDS011;4492;48.736;9.092;2023-05-10T04:59:06;1.73;;;1.63;;
8913;SDS011;4492;48.736;9.092;2023-05-10T05:01:31;1.77;;;1.60;;
8913;SDS011;4492;48.736;9.092;2023-05-10T05:03:57;1.83;;;1.50;;
8913;SDS011;4492;48.736;9.092;2023-05-10T05:06:23;1.70;;;1.60;;
8913;SDS011;4492;48.736;9.092;2023-05-10T05:08:50;1.83;;;1.73;;
8913;SDS011;4492;48.736;9.092;2023-05-10T05:11:15;2.77;;;2.00;;
8913;SDS011;4492;48.736;9.092;2023-05-10T05:13:44;2.33;;;1.63;;
8913;SDS011;4492;48.736;9.092;2023-05-10T05:16:09;3.23;;;1.70;;
8913;SDS011;4492;48.736;9.092;2023-05-10T05:18:36;2.10;;;1.67;;
8913;SDS011;4492;48.736;9.092;2023-05-10T05:21:01;3.10;;;1.80;;
8913;SDS011;4492;48.736;9.092;2023-05-10T05:23:27;1.70;;;1.60;;
8913;SDS011;4492;48.736;9.092;2023-05-10T05:25:52;1.73;;;1.60;;
8913;SDS011;4492;48.736;9.092;2023-05-10T05:28:19;2.10;;;1.50;;
8913;SDS011;4492;48.736;9.092;2023-05-10T05:30:47;1.73;;;1.63;;
8913;SDS011;4492;48.736;9.092;2023-05-10T05:33:13;2.03;;;1.83;;
8913;SDS011;4492;48.736;9.092;2023-05-10T05:35:41;4.03;;;1.67;;
8913;SDS011;4492;48.736;9.092;2023-05-10T05:38:09;4.37;;;1.73;;
8913;SDS011;4492;48.736;9.092;2023-05-10T05:40:35;2.23;;;1.97;;
8913;SDS011;4492;48.736;9.092;2023-05-10T05:43:00;1.60;;;1.47;;
8913;SDS011;4492;48.736;9.092;2023-05-10T05:45:26;2.63;;;1.57;;
8913;SDS011;4492;48.736;9.092;2023-05-10T05:47:51;2.27;;;1.80;;
8913;SDS011;4492;48.736;9.092;2023-05-10T05:50:17;1.60;;;1.50;;
8913;SDS011;4492;48.736;9.092;2023-05-10T05:52:42;1.90;;;1.63;;
8913;SDS011;4492;48.736;9.092;2023-05-10T05:55:08;2.03;;;1.50;;
8913;SDS011;4492;48.736;9.092;2023-05-10T05:57:33;1.87;;;1.73;;
8913;SDS011;4492;48.736;9.092;2023-05-10T05:59:59;2.90;;;1.70;;
8913;SDS011;4492;48.736;9.092;2023-05-10T06:02:24;2.00;;;1.67;;
8913;SDS011;4492;48.736;9.092;2023-05-10T06:04:50;2.80;;;1.63;;
8913;SDS011;4492;48.736;9.092;2023-05-10T06:07:15;2.43;;;2.00;;
8913;SDS011;4492;48.736;9.092;2023-05-10T06:09:41;1.93;;;1.70;;
8913;SDS011;4492;48.736;9.092;2023-05-10T06:12:06;2.50;;;1.60;;
8913;SDS011;4492;48.736;9.092;2023-05-10T06:14:32;2.73;;;1.50;;
8913;SDS011;4492;48.736;9.092;2023-05-10T06:16:57;1.40;;;1.23;;
8913;SDS011;4492;48.736;9.092;2023-05-10T06:19:24;1.43;;;1.33;;
8913;SDS011;4492;48.736;9.092;2023-05-10T06:21:51;1.43;;;1.33;;
8913;SDS011;4492;48.736;9.092;2023-05-10T06:24:16;3.50;;;1.40;;
8913;SDS011;4492;48.736;9.092;2023-05-10T06:26:42;3.43;;;1.47;;
8913;SDS011;4492;48.736;9.092;2023-05-10T06:29:07;4.60;;;1.20;;
8913;SDS011;4492;48.736;9.092;2023-05-10T06:31:33;1.93;;;1.43;;
8913;SDS011;4492;48.736;9.092;2023-05-10T06:33:58;1.60;;;1.50;;
8913;SDS011;4492;48.736;9.092;2023-05-10T06:36:24;2.93;;;1.47;;
8913;SDS011;4492;48.736;9.092;2023-05-10T06:38:51;1.67;;;1.57;;
8913;SDS011;4492;48.736;9.092;2023-05-10T06:41:16;2.07;;;1.50;;
8913;SDS011;4492;48.736;9.092;2023-05-10T06:43:42;3.47;;;1.43;;
8913;SDS011;4492;48.736;9.092;2023-05-10T06:46:08;1.20;;;1.10;;
8913;SDS011;4492;48.736;9.092;2023-05-10T06:48:34;4.60;;;1.60;;
8913;SDS011;4492;48.736;9.092;2023-05-10T06:50:59;1.50;;;1.40;;
8913;SDS011;4492;48.736;9.092;2023-05-10T06:53:25;1.50;;;1.40;;
8913;SDS011;4492;48.736;9.092;2023-05-10T06:55:50;1.80;;;1.70;;
8913;SDS011;4492;48.736;9.092;2023-05-10T06:58:16;3.50;;;1.50;;
8913;SDS011;4492;48.736;9.092;2023-05-10T07:00:41;5.93;;;2.67;;
8913;SDS011;4492;48.736;9.092;2023-05-10T07:03:09;6.50;;;2.33;;
8913;SDS011;4492;48.736;9.092;2023-05-10T07:05:34;3.97;;;1.90;;
8913;SDS011;4492;48.736;9.092;2023-05-10T07:08:00;5.10;;;2.07;;
8913;SDS011;4492;48.736;9.092;2023-05-10T07:10:26;10.07;;;3.37;;
8913;SDS011;4492;48.736;9.092;2023-05-10T07:12:51;8.47;;;3.63;;
8913;SDS011;4492;48.736;9.092;2023-05-10T07:15:17;6.90;;;2.73;;
8913;SDS011;4492;48.736;9.092;2023-05-10T07:17:42;1.90;;;1.80;;
8913;SDS011;4492;48.736;9.092;2023-05-10T07:20:08;1.27;;;1.20;;
8913;SDS011;4492;48.736;9.092;2023-05-10T07:22:33;4.57;;;1.50;;
8913;SDS011;4492;48.736;9.092;2023-05-10T07:24:59;1.60;;;1.40;;
8913;SDS011;4492;48.736;9.092;2023-05-10T07:27:25;2.90;;;1.30;;
8913;SDS011;4492;48.736;9.092;2023-05-10T07:29:50;4.70;;;1.50;;
8913;SDS011;4492;48.736;9.092;2023-05-10T07:32:16;3.23;;;1.30;;
8913;SDS011;4492;48.736;9.092;2023-05-10T07:34:41;5.53;;;1.20;;
8913;SDS011;4492;48.736;9.092;2023-05-10T07:37:07;1.93;;;1.33;;
8913;SDS011;4492;48.736;9.092;2023-05-10T07:39:33;3.43;;;1.40;;
8913;SDS011;4492;48.736;9.092;2023-05-10T07:41:58;1.20;;;0.90;;
8913;SDS011;4492;48.736;9.092;2023-05-10T07:44:23;1.07;;;0.90;;
8913;SDS011;4492;48.736;9.092;2023-05-10T07:46:49;2.13;;;0.93;;
8913;SDS011;4492;48.736;9.092;2023-05-10T07:49:14;2.53;;;0.80;;
8913;SDS011;4492;48.736;9.092;2023-05-10T07:51:40;2.17;;;0.73;;
8913;SDS011;4492;48.736;9.092;2023-05-10T07:54:07;1.43;;;0.80;;
8913;SDS011;4492;48.736;9.092;2023-05-10T07:56:32;0.77;;;0.67;;
8913;SDS011;4492;48.736;9.092;2023-05-10T07:58:59;0.63;;;0.53;;
8913;SDS011;4492;48.736;9.092;2023-05-10T08:01:25;2.10;;;0.70;;
8913;SDS011;4492;48.736;9.092;2023-05-10T08:03:52;0.50;;;0.50;;
8913;SDS011;4492;48.736;9.092;2023-05-10T08:06:18;1.53;;;0.70;;
8913;SDS011;4492;48.736;9.092;2023-05-10T08:08:48;3.37;;;0.73;;
8913;SDS011;4492;48.736;9.092;2023-05-10T08:11:18;0.70;;;0.70;;
8913;SDS011;4492;48.736;9.092;2023-05-10T08:13:45;2.53;;;0.57;;
8913;SDS011;4492;48.736;9.092;2023-05-10T08:16:11;0.60;;;0.60;;
8913;SDS011;4492;48.736;9.092;2023-05-10T08:18:37;2.43;;;0.50;;
8913;SDS011;4492;48.736;9.092;2023-05-10T08:21:03;0.67;;;0.60;;
8913;SDS011;4492;48.736;9.092;2023-05-10T08:23:29;0.63;;;0.63;;
8913;SDS011;4492;48.736;9.092;2023-05-10T08:25:54;0.50;;;0.50;;
8913;SDS011;4492;48.736;9.092;2023-05-10T08:28:20;1.17;;;0.43;;
8913;SDS011;4492;48.736;9.092;2023-05-10T08:30:45;0.40;;;0.40;;
8913;SDS011;4492;48.736;9.092;2023-05-10T08:33:11;0.93;;;0.50;;
8913;SDS011;4492;48.736;9.092;2023-05-10T08:35:36;0.67;;;0.40;;
8913;SDS011;4492;48.736;9.092;2023-05-10T08:38:02;0.50;;;0.50;;
8913;SDS011;4492;48.736;9.092;2023-05-10T08:40:27;2.87;;;0.50;;
8913;SDS011;4492;48.736;9.092;2023-05-10T08:42:58;0.77;;;0.70;;
8913;SDS011;4492;48.736;9.092;2023-05-10T08:45:35;0.87;;;0.40;;
8913;SDS011;4492;48.736;9.092;2023-05-10T08:48:04;0.63;;;0.60;;
8913;SDS011;4492;48.736;9.092;2023-05-10T08:50:30;3.27;;;0.57;;
8913;SDS011;4492;48.736;9.092;2023-05-10T08:52:57;0.50;;;0.50;;
8913;SDS011;4492;48.736;9.092;2023-05-10T08:55:26;1.57;;;0.40;;
8913;SDS011;4492;48.736;9.092;2023-05-10T08:57:52;2.00;;;0.50;;
8913;SDS011;4492;48.736;9.092;2023-05-10T09:00:18;1.50;;;0.40;;
8913;SDS011;4492;48.736;9.092;2023-05-10T09:02:44;1.63;;;0.47;;
8913;SDS011;4492;48.736;9.092;2023-05-10T09:05:13;0.50;;;0.50;;
8913;SDS011;4492;48.736;9.092;2023-05-10T09:07:40;0.97;;;0.50;;
8913;SDS011;4492;48.736;9.092;2023-05-10T09:10:06;1.13;;;0.50;;
8913;SDS011;4492;48.736;9.092;2023-05-10T09:12:34;0.87;;;0.30;;
8913;SDS011;4492;48.736;9.092;2023-05-10T09:15:00;0.90;;;0.30;;
8913;SDS011;4492;48.736;9.092;2023-05-10T09:17:26;0.47;;;0.30;;
8913;SDS011;4492;48.736;9.092;2023-05-10T09:19:57;0.40;;;0.30;;
8913;SDS011;4492;48.736;9.092;2023-05-10T09:22:26;6.17;;;0.57;;
8913;SDS011;4492;48.736;9.092;2023-05-10T09:25:04;0.50;;;0.50;;
8913;SDS011;4492;48.736;9.092;2023-05-10T09:27:30;0.20;;;0.20;;
8913;SDS011;4492;48.736;9.092;2023-05-10T09:29:56;1.00;;;0.50;;
8913;SDS011;4492;48.736;9.092;2023-05-10T09:32:22;0.40;;;0.40;;
8913;SDS011;4492;48.736;9.092;2023-05-10T09:35:11;1.17;;;0.50;;
8913;SDS011;4492;48.736;9.092;2023-05-10T09:37:42;0.40;;;0.40;;
8913;SDS011;4492;48.736;9.092;2023-05-10T09:40:13;5.43;;;0.50;;
8913;SDS011;4492;48.736;9.092;2023-05-10T09:42:42;0.77;;;0.50;;
8913;SDS011;4492;48.736;9.092;2023-05-10T09:45:15;6.00;;;0.60;;
8913;SDS011;4492;48.736;9.092;2023-05-10T09:47:40;0.60;;;0.30;;
8913;SDS011;4492;48.736;9.092;2023-05-10T09:50:06;0.40;;;0.30;;
8913;SDS011;4492;48.736;9.092;2023-05-10T09:55:18;2.27;;;0.40;;
8913;SDS011;4492;48.736;9.092;2023-05-10T09:57:49;0.30;;;0.30;;
8913;SDS011;4492;48.736;9.092;2023-05-10T10:00:23;0.30;;;0.27;;
8913;SDS011;4492;48.736;9.092;2023-05-10T10:02:55;1.50;;;0.37;;
8913;SDS011;4492;48.736;9.092;2023-05-10T10:05:34;1.43;;;0.30;;
8913;SDS011;4492;48.736;9.092;2023-05-10T10:08:03;1.13;;;0.30;;
8913;SDS011;4492;48.736;9.092;2023-05-10T10:10:29;0.30;;;0.30;;
8913;SDS011;4492;48.736;9.092;2023-05-10T10:12:56;0.60;;;0.30;;
8913;SDS011;4492;48.736;9.092;2023-05-10T10:15:22;0.30;;;0.30;;
8913;SDS011;4492;48.736;9.092;2023-05-10T10:17:49;0.60;;;0.40;;
8913;SDS011;4492;48.736;9.092;2023-05-10T10:20:16;4.50;;;0.40;;
8913;SDS011;4492;48.736;9.092;2023-05-10T10:22:43;0.43;;;0.30;;
8913;SDS011;4492;48.736;9.092;2023-05-10T10:25:10;0.37;;;0.37;;
8913;SDS011;4492;48.736;9.092;2023-05-10T10:30:35;0.33;;;0.33;;
8913;SDS011;4492;48.736;9.092;2023-05-10T10:35:55;0.30;;;0.30;;
8913;SDS011;4492;48.736;9.092;2023-05-10T10:38:23;1.57;;;0.70;;
8913;SDS011;4492;48.736;9.092;2023-05-10T10:40:55;0.37;;;0.37;;
8913;SDS011;4492;48.736;9.092;2023-05-10T10:43:46;1.70;;;0.43;;
8913;SDS011;4492;48.736;9.092;2023-05-10T10:46:16;0.40;;;0.40;;
8913;SDS011;4492;48.736;9.092;2023-05-10T10:48:49;0.30;;;0.30;;
8913;SDS011;4492;48.736;9.092;2023-05-10T10:51:32;1.53;;;0.33;;
8913;SDS011;4492;48.736;9.092;2023-05-10T10:54:09;0.90;;;0.40;;
8913;SDS011;4492;48.736;9.092;2023-05-10T10:56:35;0.20;;;0.20;;
8913;SDS011;4492;48.736;9.092;2023-05-10T10:59:01;1.80;;;0.30;;
8913;SDS011;4492;48.736;9.092;2023-05-10T11:01:26;1.33;;;0.33;;
8913;SDS011;4492;48.736;9.092;2023-05-10T11:06:30;2.83;;;0.30;;
8913;SDS011;4492;48.736;9.092;2023-05-10T11:08:57;3.37;;;0.30;;
8913;SDS011;4492;48.736;9.092;2023-05-10T11:11:23;4.80;;;0.63;;
8913;SDS011;4492;48.736;9.092;2023-05-10T11:13:48;0.80;;;0.40;;
8913;SDS011;4492;48.736;9.092;2023-05-10T11:18:40;2.33;;;0.50;;
8913;SDS011;4492;48.736;9.092;2023-05-10T11:21:07;2.10;;;0.50;;
8913;SDS011;4492;48.736;9.092;2023-05-10T11:23:47;1.13;;;0.63;;
8913;SDS011;4492;48.736;9.092;2023-05-10T11:26:17;1.73;;;0.43;;
8913;SDS011;4492;48.736;9.092;2023-05-10T11:28:47;0.40;;;0.30;;
8913;SDS011;4492;48.736;9.092;2023-05-10T11:31:13;0.53;;;0.50;;
8913;SDS011;4492;48.736;9.092;2023-05-10T11:33:50;3.57;;;0.50;;
8913;SDS011;4492;48.736;9.092;2023-05-10T11:36:21;2.70;;;0.40;;
8913;SDS011;4492;48.736;9.092;2023-05-10T11:38:48;1.50;;;0.40;;
8913;SDS011;4492;48.736;9.092;2023-05-10T11:41:14;1.47;;;0.40;;
8913;SDS011;4492;48.736;9.092;2023-05-10T11:43:42;0.20;;;0.20;;
8913;SDS011;4492;48.736;9.092;2023-05-10T11:46:09;0.77;;;0.50;;
8913;SDS011;4492;48.736;9.092;2023-05-10T11:48:36;0.50;;;0.40;;
8913;SDS011;4492;48.736;9.092;2023-05-10T11:51:06;1.03;;;0.40;;
8913;SDS011;4492;48.736;9.092;2023-05-10T11:53:32;0.83;;;0.50;;
8913;SDS011;4492;48.736;9.092;2023-05-10T11:56:08;2.43;;;0.50;;
8913;SDS011;4492;48.736;9.092;2023-05-10T11:58:35;1.43;;;0.40;;
8913;SDS011;4492;48.736;9.092;2023-05-10T12:01:02;0.77;;;0.60;;
8913;SDS011;4492;48.736;9.092;2023-05-10T12:03:29;1.77;;;0.57;;
8913;SDS011;4492;48.736;9.092;2023-05-10T12:05:55;0.77;;;0.40;;
8913;SDS011;4492;48.736;9.092;2023-05-10T12:08:22;0.43;;;0.40;;
8913;SDS011;4492;48.736;9.092;2023-05-10T12:10:52;0.60;;;0.60;;
8913;SDS011;4492;48.736;9.092;2023-05-10T12:13:19;0.50;;;0.50;;
8913;SDS011;4492;48.736;9.092;2023-05-10T12:15:45;1.03;;;0.50;;
8913;SDS011;4492;48.736;9.092;2023-05-10T12:18:11;1.73;;;0.50;;
8913;SDS011;4492;48.736;9.092;2023-05-10T12:20:38;1.13;;;0.50;;
8913;SDS011;4492;48.736;9.092;2023-05-10T12:23:04;0.40;;;0.40;;
8913;SDS011;4492;48.736;9.092;2023-05-10T12:25:31;2.83;;;0.70;;
8913;SDS011;4492;48.736;9.092;2023-05-10T12:28:05;3.43;;;0.70;;
8913;SDS011;4492;48.736;9.092;2023-05-10T12:30:33;3.23;;;0.67;;
8913;SDS011;4492;48.736;9.092;2023-05-10T12:33:02;0.67;;;0.60;;
8913;SDS011;4492;48.736;9.092;2023-05-10T12:35:33;0.67;;;0.50;;
8913;SDS011;4492;48.736;9.092;2023-05-10T12:38:27;1.27;;;0.67;;
8913;SDS011;4492;48.736;9.092;2023-05-10T12:41:08;0.80;;;0.67;;
8913;SDS011;4492;48.736;9.092;2023-05-10T12:43:35;0.80;;;0.50;;
8913;SDS011;4492;48.736;9.092;2023-05-10T12:46:08;0.90;;;0.53;;
8913;SDS011;4492;48.736;9.092;2023-05-10T12:48:35;1.67;;;0.80;;
8913;SDS011;4492;48.736;9.092;2023-05-10T12:51:01;1.03;;;0.60;;
8913;SDS011;4492;48.736;9.092;2023-05-10T12:53:27;1.10;;;0.60;;
8913;SDS011;4492;48.736;9.092;2023-05-10T12:55:53;1.10;;;0.70;;
8913;SDS011;4492;48.736;9.092;2023-05-10T12:58:18;1.13;;;0.60;;
8913;SDS011;4492;48.736;9.092;2023-05-10T13:00:45;0.70;;;0.70;;
8913;SDS011;4492;48.736;9.092;2023-05-10T13:03:10;0.87;;;0.50;;
8913;SDS011;4492;48.736;9.092;2023-05-10T13:05:36;1.07;;;0.80;;
8913;SDS011;4492;48.736;9.092;2023-05-10T13:08:02;0.67;;;0.63;;
8913;SDS011;4492;48.736;9.092;2023-05-10T13:10:30;0.83;;;0.60;;
8913;SDS011;4492;48.736;9.092;2023-05-10T13:12:57;2.20;;;0.60;;
8913;SDS011;4492;48.736;9.092;2023-05-10T13:15:22;4.43;;;0.83;;
8913;SDS011;4492;48.736;9.092;2023-05-10T13:17:48;0.50;;;0.50;;
8913;SDS011;4492;48.736;9.092;2023-05-10T13:20:14;1.03;;;0.63;;
8913;SDS011;4492;48.736;9.092;2023-05-10T13:22:40;0.60;;;0.60;;
8913;SDS011;4492;48.736;9.092;2023-05-10T13:25:06;0.57;;;0.50;;
8913;SDS011;4492;48.736;9.092;2023-05-10T13:27:32;1.00;;;0.70;;
8913;SDS011;4492;48.736;9.092;2023-05-10T13:29:58;1.47;;;0.70;;
8913;SDS011;4492;48.736;9.092;2023-05-10T13:32:24;1.33;;;0.80;;
8913;SDS011;4492;48.736;9.092;2023-05-10T13:34:50;1.00;;;0.80;;
8913;SDS011;4492;48.736;9.092;2023-05-10T13:37:16;1.00;;;0.60;;
8913;SDS011;4492;48.736;9.092;2023-05-10T13:39:41;4.43;;;0.70;;
8913;SDS011;4492;48.736;9.092;2023-05-10T13:42:07;1.17;;;0.60;;
8913;SDS011;4492;48.736;9.092;2023-05-10T13:44:32;1.37;;;0.50;;
8913;SDS011;4492;48.736;9.092;2023-05-10T13:46:58;0.60;;;0.40;;
8913;SDS011;4492;48.736;9.092;2023-05-10T13:49:24;1.10;;;0.60;;
8913;SDS011;4492;48.736;9.092;2023-05-10T13:51:50;2.20;;;0.70;;
8913;SDS011;4492;48.736;9.092;2023-05-10T13:54:15;0.60;;;0.60;;
8913;SDS011;4492;48.736;9.092;2023-05-10T13:56:44;1.53;;;0.80;;
8913;SDS011;4492;48.736;9.092;2023-05-10T13:59:10;0.83;;;0.60;;
8913;SDS011;4492;48.736;9.092;2023-05-10T14:01:35;1.63;;;0.60;;
8913;SDS011;4492;48.736;9.092;2023-05-10T14:04:01;1.87;;;0.70;;
8913;SDS011;4492;48.736;9.092;2023-05-10T14:06:26;1.97;;;0.50;;
8913;SDS011;4492;48.736;9.092;2023-05-10T14:08:52;1.30;;;0.60;;
8913;SDS011;4492;48.736;9.092;2023-05-10T14:11:18;0.70;;;0.70;;
8913;SDS011;4492;48.736;9.092;2023-05-10T14:13:44;0.97;;;0.60;;
8913;SDS011;4492;48.736;9.092;2023-05-10T14:16:10;1.47;;;0.67;;
8913;SDS011;4492;48.736;9.092;2023-05-10T14:18:36;1.40;;;0.50;;
8913;SDS011;4492;48.736;9.092;2023-05-10T14:21:02;1.43;;;0.70;;
8913;SDS011;4492;48.736;9.092;2023-05-10T14:23:28;0.63;;;0.50;;
8913;SDS011;4492;48.736;9.092;2023-05-10T14:25:54;1.10;;;0.60;;
8913;SDS011;4492;48.736;9.092;2023-05-10T14:28:19;1.50;;;0.60;;
8913;SDS011;4492;48.736;9.092;2023-05-10T14:30:46;2.80;;;0.60;;
8913;SDS011;4492;48.736;9.092;2023-05-10T14:33:11;3.27;;;0.60;;
8913;SDS011;4492;48.736;9.092;2023-05-10T14:35:38;1.37;;;0.60;;
8913;SDS011;4492;48.736;9.092;2023-05-10T14:38:03;1.70;;;0.70;;
8913;SDS011;4492;48.736;9.092;2023-05-10T14:40:29;1.87;;;0.63;;
8913;SDS011;4492;48.736;9.092;2023-05-10T14:42:55;0.50;;;0.40;;
8913;SDS011;4492;48.736;9.092;2023-05-10T14:45:21;1.40;;;0.50;;
8913;SDS011;4492;48.736;9.092;2023-05-10T14:47:47;0.50;;;0.40;;
8913;SDS011;4492;48.736;9.092;2023-05-10T14:50:13;1.50;;;0.60;;
8913;SDS011;4492;48.736;9.092;2023-05-10T14:52:38;2.63;;;0.87;;
8913;SDS011;4492;48.736;9.092;2023-05-10T14:55:04;3.10;;;0.80;;
8913;SDS011;4492;48.736;9.092;2023-05-10T14:57:30;1.63;;;0.47;;
8913;SDS011;4492;48.736;9.092;2023-05-10T14:59:56;1.67;;;0.50;;
8913;SDS011;4492;48.736;9.092;2023-05-10T15:02:21;0.97;;;0.63;;
8913;SDS011;4492;48.736;9.092;2023-05-10T15:04:47;3.30;;;0.60;;
8913;SDS011;4492;48.736;9.092;2023-05-10T15:07:13;0.70;;;0.53;;
8913;SDS011;4492;48.736;9.092;2023-05-10T15:09:40;1.70;;;0.83;;
8913;SDS011;4492;48.736;9.092;2023-05-10T15:12:06;3.53;;;0.60;;
8913;SDS011;4492;48.736;9.092;2023-05-10T15:14:31;1.20;;;0.73;;
8913;SDS011;4492;48.736;9.092;2023-05-10T15:16:57;1.27;;;0.50;;
8913;SDS011;4492;48.736;9.092;2023-05-10T15:19:24;0.67;;;0.60;;
8913;SDS011;4492;48.736;9.092;2023-05-10T15:21:49;1.90;;;0.60;;
8913;SDS011;4492;48.736;9.092;2023-05-10T15:24:15;1.53;;;0.70;;
8913;SDS011;4492;48.736;9.092;2023-05-10T15:26:40;0.67;;;0.50;;
8913;SDS011;4492;48.736;9.092;2023-05-10T15:29:06;0.70;;;0.50;;
8913;SDS011;4492;48.736;9.092;2023-05-10T15:31:31;0.83;;;0.53;;
8913;SDS011;4492;48.736;9.092;2023-05-10T15:33:59;1.97;;;0.70;;
8913;SDS011;4492;48.736;9.092;2023-05-10T15:36:25;1.17;;;0.50;;
8913;SDS011;4492;48.736;9.092;2023-05-10T15:38:51;1.47;;;0.90;;